Time;durP1;ratioP1;P1;durP2;ratioP2;P2;SDS_P1;SDS_P2;PMS_P1;PMS_P2;Temp;Humidity;BMP_temperature;BMP_pressure;BME280_temperature;BME280_humidity;BME280_pressure;Samples;Min_cycle;Max_cycle;Signal;HPM_P1;HPM_P2
2023/10/06 00:05:00;;;;;;;8.80;5.40;;;;;;;10.50;85.55;100533.81;217166;1260;140384;-80
2023/10/06 00:10:20;;;;;;;7.60;5.80;;;;;;;10.44;85.33;100535.45;217910;1263;139670;-74
2023/10/06 00:15:39;;;;;;;5.30;4.40;;;;;;;10.37;85.49;100535.34;217429;1259;140243;-76
2023/10/06 00:20:48;;;;;;;5.10;4.60;;;;;;;10.27;85.46;100538.83;217010;1259;139782;-75
2023/10/06 00:25:55;;;;;;;5.80;3.10;;;;;;;10.22;85.70;100538.11;217477;1260;139873;-75
2023/10/06 00:31:09;;;;;;;6.00;2.90;;;;;;;10.19;85.70;100539.09;217801;1260;139969;-75
2023/10/06 00:36:16;;;;;;;9.00;4.10;;;;;;;10.13;85.80;100545.57;217005;1264;140783;-75
2023/10/06 00:41:23;;;;;;;7.10;4.40;;;;;;;10.06;85.56;100551.47;218228;1263;139800;-86
2023/10/06 00:46:30;;;;;;;6.10;3.40;;;;;;;10.03;85.69;100555.72;217483;1260;140600;-85
2023/10/06 00:51:36;;;;;;;14.00;6.00;;;;;;;9.99;85.61;100562.09;217812;1263;140714;-82
2023/10/06 00:56:41;;;;;;;6.40;3.70;;;;;;;9.94;85.61;100565.91;218793;1260;139847;-73
2023/10/06 01:01:46;;;;;;;3.80;3.40;;;;;;;9.90;85.82;100571.45;217342;1263;140619;-73
2023/10/06 01:06:57;;;;;;;9.20;4.50;;;;;;;9.84;85.59;100572.77;218307;1259;139866;-73
2023/10/06 01:12:06;;;;;;;5.50;3.00;;;;;;;9.75;85.50;100576.17;217113;1259;140172;-72
2023/10/06 01:17:16;;;;;;;6.70;3.50;;;;;;;9.68;85.44;100576.51;218090;1260;140343;-74
2023/10/06 01:22:29;;;;;;;6.50;3.10;;;;;;;9.63;85.64;100586.34;217257;1260;141397;-73
2023/10/06 01:27:34;;;;;;;4.00;3.10;;;;;;;9.58;85.54;100593.27;218768;1259;139647;-78
2023/10/06 01:32:44;;;;;;;6.10;3.00;;;;;;;9.52;85.31;100595.73;217165;1261;139975;-73
2023/10/06 01:38:00;;;;;;;3.20;3.00;;;;;;;9.46;85.50;100596.16;218869;1259;140427;-77
2023/10/06 01:43:09;;;;;;;3.90;3.60;;;;;;;9.42;85.38;100597.64;217520;1259;139958;-77
2023/10/06 01:48:22;;;;;;;9.20;3.90;;;;;;;9.34;85.38;100603.29;217407;1260;139201;-74
2023/10/06 01:53:32;;;;;;;7.70;3.80;;;;;;;9.30;85.53;100610.58;217451;1260;139416;-82
2023/10/06 01:58:39;;;;;;;3.90;2.70;;;;;;;9.23;85.64;100613.64;217448;1260;139892;-80
2023/10/06 02:03:45;;;;;;;4.10;3.20;;;;;;;9.17;85.59;100611.48;218038;1260;140636;-74
2023/10/06 02:08:52;;;;;;;4.60;3.40;;;;;;;9.16;85.90;100617.14;217324;1260;139542;-80
2023/10/06 02:13:57;;;;;;;3.40;3.10;;;;;;;9.08;85.55;100613.80;217565;1260;140303;-81
2023/10/06 02:19:08;;;;;;;3.60;3.10;;;;;;;9.03;85.70;100614.45;217860;1259;140626;-79
2023/10/06 02:24:16;;;;;;;3.60;2.80;;;;;;;8.97;85.41;100623.98;218334;1259;141148;-79
2023/10/06 02:29:24;;;;;;;8.30;4.90;;;;;;;8.90;85.39;100633.27;217291;1259;139665;-80
2023/10/06 02:34:35;;;;;;;4.80;3.30;;;;;;;8.84;85.45;100640.81;217247;1261;140294;-81
2023/10/06 02:39:43;;;;;;;4.30;3.90;;;;;;;8.79;85.50;100642.73;217581;1261;139867;-81
2023/10/06 02:44:51;;;;;;;5.30;4.50;;;;;;;8.79;85.85;100642.35;218652;1260;140117;-81
2023/10/06 02:49:59;;;;;;;5.50;5.00;;;;;;;8.77;85.95;100635.20;218280;1259;139758;-80
2023/10/06 02:55:10;;;;;;;6.10;5.20;;;;;;;8.74;85.99;100632.36;220004;1259;140059;-73
2023/10/06 03:05:33;;;;;;;9.70;8.00;;;;;;;8.77;86.21;100633.19;218960;1259;140318;-72
2023/10/06 03:10:45;;;;;;;10.60;6.70;;;;;;;8.84;86.72;100634.77;219535;1259;141191;-74
2023/10/06 03:15:50;;;;;;;13.20;9.90;;;;;;;8.90;87.03;100635.73;219044;1259;140280;-73
2023/10/06 03:21:13;;;;;;;20.60;9.70;;;;;;;8.97;87.24;100637.35;218026;1259;140447;-75
2023/10/06 03:26:29;;;;;;;29.80;11.30;;;;;;;9.02;87.31;100639.16;218257;1259;141241;-73
2023/10/06 03:31:44;;;;;;;11.80;10.20;;;;;;;9.05;87.44;100644.73;217907;1260;141277;-74
2023/10/06 03:36:53;;;;;;;15.40;10.90;;;;;;;9.09;87.59;100653.91;218162;1260;140678;-73
2023/10/06 03:42:02;;;;;;;18.80;12.00;;;;;;;9.15;87.92;100656.30;218224;1259;140711;-73
2023/10/06 03:47:08;;;;;;;12.90;9.60;;;;;;;9.20;88.03;100657.90;217047;1262;140726;-84
2023/10/06 03:52:16;;;;;;;20.10;11.40;;;;;;;9.20;87.92;100661.89;218241;1260;140118;-83
2023/10/06 03:57:22;;;;;;;14.30;10.90;;;;;;;9.23;88.24;100664.55;217341;1259;139867;-73
2023/10/06 04:02:27;;;;;;;17.70;13.30;;;;;;;9.25;88.33;100668.77;217297;1262;140289;-74
2023/10/06 04:07:35;;;;;;;21.30;14.00;;;;;;;9.25;88.46;100678.88;217262;1261;139977;-75
2023/10/06 04:12:40;;;;;;;52.50;17.30;;;;;;;9.27;88.55;100681.02;217581;1260;139874;-69
2023/10/06 04:17:45;;;;;;;19.30;12.40;;;;;;;9.26;88.72;100674.58;217520;1260;140646;-72
2023/10/06 04:22:51;;;;;;;15.10;11.50;;;;;;;9.29;88.79;100682.70;217660;1263;141365;-76
2023/10/06 04:27:57;;;;;;;17.10;11.10;;;;;;;9.30;88.73;100690.89;217936;1260;140151;-78
2023/10/06 04:33:09;;;;;;;28.40;13.00;;;;;;;9.31;88.97;100700.02;217100;1261;140367;-78
2023/10/06 04:38:14;;;;;;;17.70;12.30;;;;;;;9.34;89.06;100703.13;217812;1259;140172;-78
2023/10/06 04:43:20;;;;;;;26.50;14.10;;;;;;;9.35;89.00;100699.33;217608;1259;140541;-74
2023/10/06 04:48:26;;;;;;;18.80;11.80;;;;;;;9.35;88.92;100697.48;218923;1260;141017;-78
2023/10/06 04:53:37;;;;;;;20.10;12.40;;;;;;;9.37;88.95;100698.52;219784;1259;141144;-80
2023/10/06 04:58:42;;;;;;;25.00;14.10;;;;;;;9.39;88.94;100705.11;219928;1259;140164;-78
2023/10/06 05:03:47;;;;;;;22.50;12.20;;;;;;;9.43;88.93;100700.70;219417;1261;207825;-78
2023/10/06 05:08:52;;;;;;;21.90;12.10;;;;;;;9.48;88.81;100696.30;218553;1262;140643;-74
2023/10/06 05:13:57;;;;;;;20.40;11.70;;;;;;;9.53;88.99;100712.39;218996;1259;141060;-77
2023/10/06 05:19:03;;;;;;;13.30;8.00;;;;;;;9.54;88.93;100720.59;218372;1257;141113;-78
2023/10/06 05:24:09;;;;;;;19.20;12.20;;;;;;;9.55;88.96;100725.21;217902;1256;140562;-75
2023/10/06 05:29:14;;;;;;;18.10;10.90;;;;;;;9.57;89.04;100735.70;218438;1256;139815;-81
2023/10/06 05:34:23;;;;;;;17.60;11.90;;;;;;;9.62;89.16;100739.27;217464;1259;141203;-74
2023/10/06 05:39:33;;;;;;;;;;;;;;;9.67;89.31;100731.78;217822;1259;140441;-71
2023/10/06 05:44:39;;;;;;;24.60;13.90;;;;;;;9.71;89.52;100731.01;218404;1259;125979;-76
2023/10/06 05:49:47;;;;;;;18.30;11.80;;;;;;;9.78;89.42;100729.40;217590;1260;139738;-70
2023/10/06 05:54:57;;;;;;;19.70;11.80;;;;;;;9.80;89.86;100735.50;217538;1259;140866;-73
2023/10/06 06:00:02;;;;;;;15.90;10.60;;;;;;;9.88;89.89;100741.56;217880;1259;139701;-70
2023/10/06 06:05:07;;;;;;;23.20;12.70;;;;;;;9.94;89.76;100755.66;218299;1257;140690;-69
2023/10/06 06:10:15;;;;;;;19.50;10.50;;;;;;;10.01;89.79;100755.05;217571;1262;141571;-70
2023/10/06 06:15:21;;;;;;;25.10;15.60;;;;;;;10.13;90.02;100752.69;217906;1261;140600;-69
2023/10/06 06:20:27;;;;;;;24.80;14.50;;;;;;;10.26;89.89;100751.56;218278;1259;141063;-71
2023/10/06 06:25:32;;;;;;;25.00;15.90;;;;;;;10.36;90.05;100761.35;217939;1259;140260;-70
2023/10/06 06:30:39;;;;;;;23.00;14.80;;;;;;;10.40;89.72;100763.36;218296;1256;140182;-70
2023/10/06 06:35:44;;;;;;;21.20;14.00;;;;;;;10.41;89.74;100771.25;217836;1259;141315;-69
2023/10/06 06:40:49;;;;;;;17.30;12.40;;;;;;;10.45;89.77;100775.50;218343;1256;140035;-70
2023/10/06 06:45:53;;;;;;;17.70;10.90;;;;;;;10.53;89.69;100778.31;217201;1259;140740;-69
2023/10/06 06:50:58;;;;;;;19.70;13.00;;;;;;;10.60;89.59;100776.14;217431;1259;140994;-79
2023/10/06 06:56:05;;;;;;;18.90;12.60;;;;;;;10.71;89.60;100782.16;219417;1258;140196;-71
2023/10/06 07:01:16;;;;;;;18.70;12.80;;;;;;;10.86;89.65;100783.30;217923;1259;140295;-70
2023/10/06 07:06:21;;;;;;;22.40;13.30;;;;;;;11.02;89.99;100791.53;217823;1261;140974;-79
2023/10/06 07:11:26;;;;;;;19.90;13.30;;;;;;;11.18;89.35;100793.81;218752;1257;140219;-73
2023/10/06 07:16:33;;;;;;;20.20;13.30;;;;;;;11.28;89.13;100796.80;218291;1259;141138;-72
2023/10/06 07:21:39;;;;;;;22.80;13.90;;;;;;;11.36;88.81;100795.59;218172;1259;140921;-69
2023/10/06 07:26:43;;;;;;;15.00;10.20;;;;;;;11.50;88.63;100799.42;218323;1260;140697;-69
2023/10/06 07:31:49;;;;;;;12.50;9.50;;;;;;;11.60;88.56;100796.29;217647;1256;141834;-70
2023/10/06 07:36:54;;;;;;;14.50;8.50;;;;;;;11.74;88.65;100788.71;217995;1258;140266;-74
2023/10/06 07:41:58;;;;;;;13.40;8.20;;;;;;;11.88;88.04;100785.96;217846;1257;140744;-78
2023/10/06 07:47:04;;;;;;;13.30;8.10;;;;;;;12.05;88.21;100783.75;217614;1259;141454;-69
2023/10/06 07:52:10;;;;;;;12.40;8.20;;;;;;;12.23;87.92;100786.94;218155;1260;139680;-71
2023/10/06 07:57:16;;;;;;;13.90;7.90;;;;;;;12.34;87.40;100786.90;217723;1260;139892;-71
2023/10/06 08:02:23;;;;;;;7.50;6.50;;;;;;;12.42;87.14;100787.98;217458;1256;139924;-71
2023/10/06 08:07:30;;;;;;;11.10;6.80;;;;;;;12.78;87.41;100789.19;217675;1262;140175;-71
2023/10/06 08:12:35;;;;;;;9.30;5.90;;;;;;;13.07;86.52;100781.89;218080;1260;141615;-69
2023/10/06 08:17:40;;;;;;;8.30;5.50;;;;;;;13.34;86.60;100772.90;218609;1256;139876;-70
2023/10/06 08:22:49;;;;;;;6.30;5.70;;;;;;;13.60;86.04;100770.67;217574;1257;152611;-76
2023/10/06 08:27:53;;;;;;;11.00;6.40;;;;;;;13.72;85.14;100762.59;218884;1257;141490;-70
2023/10/06 08:32:59;;;;;;;10.70;6.20;;;;;;;13.61;84.58;100763.94;217998;1259;140416;-71
2023/10/06 08:38:07;;;;;;;6.80;5.30;;;;;;;13.56;84.21;100768.09;217803;1260;139615;-72
2023/10/06 08:43:19;;;;;;;7.10;5.10;;;;;;;13.66;83.88;100774.86;218086;1260;140550;-71
2023/10/06 08:48:37;;;;;;;5.70;5.10;;;;;;;13.79;83.04;100776.09;218058;1260;141770;-72
2023/10/06 08:53:44;;;;;;;6.90;4.80;;;;;;;13.79;82.44;100775.17;218074;1259;141123;-72
2023/10/06 08:58:53;;;;;;;8.30;4.50;;;;;;;13.89;82.34;100782.66;217159;1260;140485;-73
2023/10/06 09:04:04;;;;;;;6.40;4.10;;;;;;;14.23;82.21;100777.39;218802;1262;140814;-76
2023/10/06 09:09:28;;;;;;;7.40;4.90;;;;;;;14.77;82.00;100771.20;217555;1260;139838;-72
2023/10/06 09:14:33;;;;;;;11.80;5.90;;;;;;;15.25;81.31;100769.42;218713;1259;140440;-76
2023/10/06 09:19:49;;;;;;;6.10;4.40;;;;;;;15.63;80.34;100768.03;217594;1261;140149;-79
2023/10/06 09:25:04;;;;;;;9.60;6.20;;;;;;;15.58;78.75;100769.94;218441;1260;669127;-78
2023/10/06 09:30:11;;;;;;;8.90;4.80;;;;;;;15.51;78.54;100769.63;218450;1261;140040;-81
2023/10/06 09:35:23;;;;;;;6.00;3.80;;;;;;;15.46;78.41;100759.02;218415;1262;140375;-76
2023/10/06 09:40:32;;;;;;;4.70;4.10;;;;;;;15.47;78.04;100749.68;217799;1262;140798;-75
2023/10/06 09:45:40;;;;;;;8.20;4.50;;;;;;;15.67;77.85;100732.50;218385;1260;140647;-76
2023/10/06 09:50:48;;;;;;;6.40;3.70;;;;;;;15.84;77.57;100725.75;218457;1258;139758;-73
2023/10/06 09:55:55;;;;;;;6.50;4.50;;;;;;;16.18;77.31;100711.77;217801;1260;140659;-80
2023/10/06 10:01:03;;;;;;;10.10;3.40;;;;;;;15.97;75.82;100709.33;217639;1262;140569;-76
2023/10/06 10:06:10;;;;;;;4.40;3.20;;;;;;;15.73;75.28;100702.73;217396;1262;139913;-75
2023/10/06 10:11:31;;;;;;;7.30;3.40;;;;;;;15.42;74.85;100702.52;217614;1262;141204;-77
2023/10/06 10:16:45;;;;;;;12.00;3.30;;;;;;;15.56;75.49;100700.87;217429;1262;140181;-70
2023/10/06 10:21:53;;;;;;;3.80;2.80;;;;;;;15.98;75.24;100696.98;217785;1262;140561;-71
2023/10/06 10:26:59;;;;;;;2.70;2.40;;;;;;;16.30;75.18;100705.39;218498;1261;139768;-71
2023/10/06 10:32:16;;;;;;;5.10;3.40;;;;;;;16.40;74.47;100714.66;217205;1262;140421;-70
2023/10/06 10:37:31;;;;;;;3.50;2.40;;;;;;;16.62;74.08;100709.30;217262;1262;139353;-71
2023/10/06 10:42:40;;;;;;;3.10;2.30;;;;;;;16.82;73.72;100695.87;217484;1262;141075;-69
2023/10/06 10:47:45;;;;;;;12.60;3.50;;;;;;;16.95;73.23;100690.34;217770;1259;140075;-71
2023/10/06 10:52:53;;;;;;;3.00;2.70;;;;;;;17.06;72.69;100688.86;218650;1263;140252;-72
2023/10/06 10:58:00;;;;;;;5.10;2.90;;;;;;;17.15;72.10;100681.17;217455;1263;139984;-75
2023/10/06 11:03:05;;;;;;;5.90;3.60;;;;;;;17.22;71.77;100673.91;218892;1262;140490;-75
2023/10/06 11:08:11;;;;;;;2.60;2.40;;;;;;;17.52;72.05;100662.37;218745;1262;139750;-74
2023/10/06 11:13:19;;;;;;;4.80;2.80;;;;;;;17.69;71.63;100645.80;218173;1262;139715;-74
2023/10/06 11:18:35;;;;;;;13.30;4.00;;;;;;;17.91;71.30;100628.84;218185;1259;140166;-68
2023/10/06 11:23:45;;;;;;;4.60;2.70;;;;;;;17.96;70.60;100611.45;217619;1261;140884;-76
2023/10/06 11:28:50;;;;;;;5.90;2.30;;;;;;;18.06;70.20;100602.31;217816;1262;141912;-69
2023/10/06 11:33:56;;;;;;;3.50;2.50;;;;;;;18.00;69.56;100605.76;217494;1262;152240;-72
2023/10/06 11:39:03;;;;;;;6.00;2.50;;;;;;;18.08;69.40;100605.40;217644;1262;141273;-78
2023/10/06 11:44:08;;;;;;;4.00;3.00;;;;;;;17.98;68.76;100605.91;217402;1261;140444;-80
2023/10/06 11:49:19;;;;;;;2.20;2.00;;;;;;;17.89;68.98;100603.70;217858;1262;140031;-70
2023/10/06 11:54:25;;;;;;;3.90;2.90;;;;;;;17.98;69.00;100593.23;217224;1263;140479;-72
2023/10/06 11:59:30;;;;;;;11.40;2.90;;;;;;;18.22;68.68;100578.81;217495;1261;140589;-73
2023/10/06 12:04:37;;;;;;;6.70;2.60;;;;;;;18.46;68.52;100576.77;217545;1263;141165;-74
2023/10/06 12:09:42;;;;;;;4.00;2.60;;;;;;;18.55;67.84;100562.27;217528;1263;139994;-72
2023/10/06 12:14:53;;;;;;;;;;;;;;;18.52;67.37;100561.23;218400;1263;140553;-72
2023/10/06 12:19:58;;;;;;;5.90;2.10;;;;;;;18.30;67.34;100567.66;217820;1261;126765;-74
2023/10/06 12:25:16;;;;;;;4.00;2.20;;;;;;;18.16;67.43;100560.92;217065;1263;140367;-73
2023/10/06 12:30:22;;;;;;;7.10;2.20;;;;;;;17.95;66.97;100545.20;217975;1262;139895;-76
2023/10/06 12:35:28;;;;;;;1.90;1.50;;;;;;;17.91;67.39;100527.05;217839;1263;140125;-74
2023/10/06 12:40:33;;;;;;;7.50;2.50;;;;;;;17.89;67.31;100516.84;218265;1259;140009;-74
2023/10/06 12:45:38;;;;;;;5.50;2.80;;;;;;;18.05;66.99;100522.20;219323;1261;140587;-69
2023/10/06 12:50:44;;;;;;;8.80;2.50;;;;;;;17.82;66.63;100503.43;218409;1260;139816;-72
2023/10/06 12:55:56;;;;;;;6.20;3.00;;;;;;;17.77;66.98;100493.01;218144;1258;222355;-70
2023/10/06 13:01:07;;;;;;;5.70;2.50;;;;;;;17.99;67.03;100488.83;217533;1260;140031;-72
2023/10/06 13:06:13;;;;;;;9.00;3.00;;;;;;;18.27;66.87;100485.17;217461;1261;139653;-77
2023/10/06 13:11:18;;;;;;;3.50;2.80;;;;;;;18.44;66.43;100476.77;217703;1257;139810;-74
2023/10/06 13:16:24;;;;;;;6.00;3.50;;;;;;;18.37;65.88;100475.84;217353;1257;139888;-76
2023/10/06 13:21:29;;;;;;;4.50;2.70;;;;;;;17.88;65.42;100463.22;218137;1261;139670;-79
2023/10/06 13:26:40;;;;;;;4.30;3.10;;;;;;;17.42;65.81;100452.17;217432;1258;139709;-73
2023/10/06 13:31:48;;;;;;;4.40;3.10;;;;;;;17.29;66.49;100461.22;217742;1262;139660;-70
2023/10/06 13:36:55;;;;;;;7.40;2.90;;;;;;;17.24;66.83;100459.24;217373;1260;141331;-70
2023/10/06 13:42:03;;;;;;;6.50;2.90;;;;;;;17.17;67.23;100451.39;217397;1261;140241;-78
2023/10/06 13:47:10;;;;;;;5.80;3.30;;;;;;;17.04;67.02;100448.25;217727;1257;140090;-71
2023/10/06 13:52:16;;;;;;;5.00;2.60;;;;;;;16.91;67.52;100449.39;217357;1263;140591;-76
2023/10/06 13:57:23;;;;;;;2.90;2.30;;;;;;;16.84;67.79;100441.32;217812;1257;140466;-76
2023/10/06 14:02:28;;;;;;;3.80;2.60;;;;;;;16.68;67.78;100423.59;217588;1258;140222;-77
2023/10/06 14:07:34;;;;;;;8.90;3.50;;;;;;;16.57;68.21;100419.00;217460;1257;139563;-75
2023/10/06 14:12:43;;;;;;;6.10;3.60;;;;;;;16.61;68.67;100423.40;217811;1257;142207;-69
2023/10/06 14:17:52;;;;;;;6.70;3.10;;;;;;;16.64;68.62;100404.71;218311;1261;139840;-70
2023/10/06 14:22:58;;;;;;;4.40;3.40;;;;;;;16.69;68.94;100404.06;217728;1260;140483;-71
2023/10/06 14:28:02;;;;;;;5.00;2.50;;;;;;;16.70;68.86;100396.86;217977;1262;139899;-78
2023/10/06 14:33:22;;;;;;;3.90;2.20;;;;;;;16.68;68.94;100382.20;218769;1260;142371;-80
2023/10/06 14:49:12;;;;;;;20.60;3.40;;;;;;;16.61;69.42;100352.77;217233;1260;139866;-71
2023/10/06 14:54:18;;;;;;;7.00;3.50;;;;;;;16.47;69.64;100343.38;217861;1258;140215;-78
2023/10/06 14:59:31;;;;;;;5.10;3.00;;;;;;;16.44;69.94;100335.72;218163;1259;140899;-74
2023/10/06 15:04:40;;;;;;;3.60;2.50;;;;;;;16.36;69.98;100327.86;218015;1260;140060;-77
2023/10/06 15:09:46;;;;;;;4.80;3.10;;;;;;;16.22;70.06;100322.25;217353;1259;139425;-74
2023/10/06 15:14:53;;;;;;;4.70;2.80;;;;;;;16.10;70.33;100318.19;218080;1262;139999;-77
2023/10/06 15:20:00;;;;;;;5.40;3.50;;;;;;;16.01;70.73;100309.66;217211;1261;140101;-73
2023/10/06 15:25:10;;;;;;;4.30;2.80;;;;;;;15.94;70.95;100300.50;217554;1262;139223;-74
2023/10/06 15:30:17;;;;;;;4.00;3.10;;;;;;;15.90;71.24;100292.64;218388;1257;141834;-77
2023/10/06 15:35:24;;;;;;;;;;;;;;;15.88;71.29;100281.81;217408;1262;140231;-70
2023/10/06 15:40:40;;;;;;;2.40;2.20;;;;;;;15.80;71.49;100296.59;218301;1260;125980;-70
2023/10/06 15:46:00;;;;;;;3.90;2.00;;;;;;;15.78;71.64;100283.30;217687;1259;140556;-71
2023/10/06 15:51:13;;;;;;;2.50;2.30;;;;;;;15.71;71.66;100264.83;217152;1257;140537;-70
2023/10/06 15:56:23;;;;;;;5.00;3.40;;;;;;;15.65;71.72;100255.48;217797;1257;140366;-69
2023/10/06 16:01:34;;;;;;;4.50;2.80;;;;;;;15.49;71.55;100244.02;217634;1258;141018;-71
2023/10/06 16:06:43;;;;;;;3.50;3.10;;;;;;;15.32;71.69;100233.20;217310;1257;139723;-75
2023/10/06 16:11:49;;;;;;;3.80;2.90;;;;;;;15.22;71.87;100230.17;217490;1259;139956;-75
2023/10/06 16:16:55;;;;;;;3.00;2.70;;;;;;;15.20;72.13;100223.38;217882;1259;140084;-77
2023/10/06 16:22:03;;;;;;;;;;;;;;;15.19;72.18;100223.10;217886;1259;139988;-72
2023/10/06 16:27:09;;;;;;;4.60;2.40;;;;;;;15.14;72.35;100228.47;218003;1258;126561;-73
2023/10/06 16:32:15;;;;;;;9.90;3.90;;;;;;;15.12;72.56;100217.98;217375;1258;140120;-74
2023/10/06 16:37:22;;;;;;;4.50;2.70;;;;;;;15.07;72.51;100207.44;217661;1257;140802;-70
2023/10/06 16:42:33;;;;;;;5.80;3.70;;;;;;;15.01;72.71;100211.45;218723;1259;140236;-72
2023/10/06 16:47:42;;;;;;;5.40;2.70;;;;;;;14.96;72.88;100197.40;218780;1257;140330;-71
2023/10/06 16:52:56;;;;;;;3.80;3.00;;;;;;;14.93;73.09;100186.64;218253;1257;141695;-73
2023/10/06 16:58:02;;;;;;;3.00;2.70;;;;;;;14.91;73.22;100193.81;218435;1259;141617;-76
2023/10/06 17:03:09;;;;;;;10.10;4.00;;;;;;;14.86;73.02;100196.77;217604;1259;140722;-72
2023/10/06 17:08:15;;;;;;;3.30;2.70;;;;;;;14.81;73.16;100185.84;218231;1257;140552;-71
2023/10/06 17:13:22;;;;;;;3.90;2.50;;;;;;;14.71;73.23;100176.29;218932;1257;140811;-72
2023/10/06 17:18:26;;;;;;;5.80;3.50;;;;;;;14.62;73.59;100165.20;217835;1259;140790;-74
2023/10/06 17:23:31;;;;;;;3.70;3.20;;;;;;;14.56;73.71;100154.88;219016;1257;140752;-72
2023/10/06 17:28:36;;;;;;;4.80;2.70;;;;;;;14.56;73.90;100152.19;218353;1262;140962;-73
2023/10/06 17:33:41;;;;;;;4.90;4.10;;;;;;;14.56;74.04;100141.89;218148;1257;140272;-84
2023/10/06 17:38:48;;;;;;;7.90;4.10;;;;;;;14.55;74.31;100123.61;217365;1262;140645;-74
2023/10/06 17:43:57;;;;;;;11.60;4.10;;;;;;;14.54;74.28;100109.77;217371;1258;139665;-71
2023/10/06 17:49:07;;;;;;;4.20;3.80;;;;;;;14.55;74.48;100098.15;217286;1259;141421;-70
2023/10/06 17:54:13;;;;;;;4.20;3.90;;;;;;;14.57;74.57;100099.18;218148;1259;140080;-70
2023/10/06 17:59:23;;;;;;;6.90;3.60;;;;;;;14.56;74.75;100098.48;217529;1258;140112;-71
2023/10/06 18:04:28;;;;;;;3.70;3.40;;;;;;;14.58;74.89;100089.52;217509;1258;140699;-73
2023/10/06 18:09:33;;;;;;;6.30;4.60;;;;;;;14.59;74.71;100084.13;217355;1259;140328;-72
2023/10/06 18:14:38;;;;;;;4.70;3.20;;;;;;;14.60;74.73;100074.60;217891;1262;140798;-68
2023/10/06 18:19:42;;;;;;;6.40;3.80;;;;;;;14.58;74.31;100075.70;218146;1257;140030;-68
2023/10/06 18:24:47;;;;;;;6.90;3.60;;;;;;;14.51;74.49;100073.37;218291;1259;139851;-82
2023/10/06 18:29:51;;;;;;;4.00;3.00;;;;;;;14.49;74.41;100075.06;218448;1257;140968;-80
2023/10/06 18:34:58;;;;;;;6.10;4.20;;;;;;;14.51;74.35;100056.78;218033;1259;140931;-75
2023/10/06 18:40:05;;;;;;;5.60;3.50;;;;;;;14.55;74.46;100057.21;217675;1262;140399;-72
2023/10/06 18:45:11;;;;;;;17.80;4.10;;;;;;;14.60;74.45;100066.81;218105;1259;140600;-70
2023/10/06 18:50:18;;;;;;;6.50;4.40;;;;;;;14.62;74.27;100049.41;218414;1257;141073;-76
2023/10/06 18:55:24;;;;;;;3.90;3.40;;;;;;;14.62;74.15;100045.64;218450;1256;140663;-70
2023/10/06 19:00:31;;;;;;;8.10;4.60;;;;;;;14.64;74.23;100037.03;217796;1260;140235;-68
2023/10/06 19:05:36;;;;;;;4.10;3.70;;;;;;;14.67;74.09;100028.08;219571;1258;140836;-70
2023/10/06 19:10:45;;;;;;;5.80;4.10;;;;;;;14.69;74.03;100020.19;219329;1259;140740;-70
2023/10/06 19:15:52;;;;;;;14.30;4.00;;;;;;;14.70;74.07;100014.99;219628;1258;140651;-72
2023/10/06 19:21:01;;;;;;;10.00;5.60;;;;;;;14.71;74.04;100004.23;217820;1257;140751;-70
2023/10/06 19:26:11;;;;;;;7.90;4.50;;;;;;;14.71;73.96;100012.16;218809;1257;140823;-71
2023/10/06 19:31:16;;;;;;;5.80;4.10;;;;;;;14.73;74.01;100021.84;218250;1258;140079;-81
2023/10/06 19:36:21;;;;;;;4.60;4.10;;;;;;;14.73;73.94;100021.90;218339;1261;140327;-74
2023/10/06 19:41:27;;;;;;;6.90;4.50;;;;;;;14.70;74.04;100031.21;218893;1259;143116;-69
2023/10/06 19:46:31;;;;;;;6.80;5.00;;;;;;;14.67;74.10;100019.48;217671;1262;140763;-77
2023/10/06 19:51:35;;;;;;;4.80;4.30;;;;;;;14.63;74.26;100017.96;218276;1259;140909;-77
2023/10/06 19:56:38;;;;;;;5.40;4.50;;;;;;;14.62;74.29;100013.82;218215;1258;140185;-74
2023/10/06 20:01:43;;;;;;;6.40;4.10;;;;;;;14.59;74.36;100014.81;218479;1260;140698;-75
2023/10/06 20:06:49;;;;;;;6.80;4.90;;;;;;;14.51;74.43;99999.44;217729;1257;140865;-79
2023/10/06 20:11:54;;;;;;;6.30;3.60;;;;;;;14.46;74.63;99987.85;217512;1257;140205;-70
2023/10/06 20:16:59;;;;;;;7.30;4.30;;;;;;;14.44;74.78;99988.52;218421;1259;141761;-72
2023/10/06 20:22:05;;;;;;;4.20;3.80;;;;;;;14.41;74.82;99973.95;217749;1261;139711;-70
2023/10/06 20:27:09;;;;;;;7.10;3.80;;;;;;;14.37;74.87;99967.89;217656;1260;139787;-76
2023/10/06 20:32:14;;;;;;;4.60;4.20;;;;;;;14.32;75.02;99954.61;217789;1259;140278;-70
2023/10/06 20:37:18;;;;;;;8.20;4.20;;;;;;;14.29;75.21;99946.97;217913;1258;142201;-79
2023/10/06 20:42:23;;;;;;;6.30;3.80;;;;;;;14.27;75.16;99938.75;218456;1259;140251;-70
2023/10/06 20:47:28;;;;;;;5.80;3.70;;;;;;;14.26;75.47;99936.48;217983;1258;139753;-80
2023/10/06 20:52:32;;;;;;;5.40;3.90;;;;;;;14.23;75.59;99934.02;218309;1257;139716;-81
2023/10/06 20:57:37;;;;;;;10.60;4.80;;;;;;;14.19;75.80;99924.23;218691;1259;139876;-79
2023/10/06 21:02:42;;;;;;;8.60;4.20;;;;;;;14.18;75.75;99919.81;219125;1257;140693;-80
2023/10/06 21:07:50;;;;;;;5.60;3.60;;;;;;;14.20;76.04;99915.34;218193;1260;141047;-75
2023/10/06 21:12:57;;;;;;;10.70;4.90;;;;;;;14.22;76.07;99908.17;218939;1259;141015;-79
2023/10/06 21:18:04;;;;;;;9.30;4.40;;;;;;;14.24;76.07;99902.25;218276;1257;140014;-75
2023/10/06 21:23:09;;;;;;;22.60;5.20;;;;;;;14.28;76.12;99895.73;217768;1258;140404;-72
2023/10/06 21:28:16;;;;;;;9.30;4.90;;;;;;;14.29;75.95;99891.62;216830;1259;551081;-72
2023/10/06 21:33:22;;;;;;;5.70;4.10;;;;;;;14.31;76.18;99891.36;217498;1261;140595;-72
2023/10/06 21:38:27;;;;;;;7.30;4.40;;;;;;;14.30;76.42;99888.20;217409;1257;139879;-72
2023/10/06 21:43:32;;;;;;;6.00;4.40;;;;;;;14.21;76.52;99882.38;217706;1259;139477;-75
2023/10/06 21:48:36;;;;;;;7.50;4.90;;;;;;;14.08;77.03;99873.41;218017;1259;140355;-72
2023/10/06 21:53:41;;;;;;;4.60;3.70;;;;;;;13.97;77.16;99875.67;217738;1258;140094;-73
2023/10/06 21:58:45;;;;;;;7.70;4.10;;;;;;;13.86;77.69;99877.38;218208;1261;139816;-71
2023/10/06 22:03:50;;;;;;;4.20;3.40;;;;;;;13.72;78.20;99863.14;217694;1257;207893;-70
2023/10/06 22:08:56;;;;;;;4.90;4.30;;;;;;;13.58;78.43;99842.78;217624;1258;140196;-80
2023/10/06 22:14:02;;;;;;;5.80;4.30;;;;;;;13.48;78.85;99838.39;217634;1259;139719;-77
2023/10/06 22:19:08;;;;;;;6.10;4.00;;;;;;;13.46;79.20;99829.69;217627;1258;140781;-76
2023/10/06 22:24:13;;;;;;;8.50;5.40;;;;;;;13.37;79.68;99817.35;217570;1262;140142;-76
2023/10/06 22:29:17;;;;;;;8.50;4.20;;;;;;;13.35;80.05;99810.90;217290;1261;140379;-75
2023/10/06 22:34:22;;;;;;;6.70;4.00;;;;;;;13.37;80.16;99809.73;219056;1259;139916;-76
2023/10/06 22:39:28;;;;;;;7.10;4.80;;;;;;;13.39;80.27;99809.81;217896;1258;140644;-76
2023/10/06 22:44:33;;;;;;;5.50;3.90;;;;;;;13.34;80.22;99802.32;217421;1257;139538;-81
2023/10/06 22:49:39;;;;;;;6.60;4.60;;;;;;;13.32;80.38;99803.73;217149;1259;140542;-75
2023/10/06 22:54:45;;;;;;;4.70;3.20;;;;;;;13.31;80.67;99793.06;217442;1259;209115;-78
2023/10/06 22:59:49;;;;;;;6.90;3.90;;;;;;;13.27;80.81;99768.11;217937;1257;140149;-81
2023/10/06 23:04:54;;;;;;;6.10;3.20;;;;;;;13.25;81.00;99761.67;220101;1257;140000;-79
2023/10/06 23:10:00;;;;;;;8.70;4.10;;;;;;;13.25;80.99;99756.42;218565;1257;141026;-82
2023/10/06 23:15:07;;;;;;;9.30;3.90;;;;;;;13.27;81.15;99742.63;218327;1257;140660;-73
2023/10/06 23:20:23;;;;;;;5.10;3.00;;;;;;;13.29;81.08;99728.09;217361;1259;140836;-74
2023/10/06 23:25:36;;;;;;;5.30;4.40;;;;;;;13.31;80.75;99722.02;218314;1259;139845;-79
2023/10/06 23:30:43;;;;;;;7.80;4.50;;;;;;;13.33;80.82;99704.21;217445;1259;139742;-75
2023/10/06 23:35:48;;;;;;;7.30;4.00;;;;;;;13.35;80.65;99700.05;218279;1259;139810;-84